Time;durP1;ratioP1;P1;durP2;ratioP2;P2;SDS_P1;SDS_P2;PMS_P1;PMS_P2;Temp;Humidity;BMP_temperature;BMP_pressure;BME280_temperature;BME280_humidity;BME280_pressure;Samples;Min_cycle;Max_cycle;Signal;HPM_P1;HPM_P2
2024/01/25 00:00:54;;;;;;;34.65;8.07;;;8.20;99.90;;;;;;4859485;29;20078;-74
2024/01/25 00:03:19;;;;;;;33.80;7.38;;;8.20;99.90;;;;;;4859414;29;20045;-74
2024/01/25 00:05:45;;;;;;;34.58;7.97;;;8.20;99.90;;;;;;4864535;29;20135;-74
2024/01/25 00:08:10;;;;;;;38.13;8.63;;;8.20;99.90;;;;;;4859156;29;20042;-74
2024/01/25 00:10:36;;;;;;;30.02;7.68;;;8.20;99.90;;;;;;4860508;29;20501;-74
2024/01/25 00:13:02;;;;;;;35.25;7.95;;;8.20;99.90;;;;;;4849987;29;20565;-74
2024/01/25 00:15:27;;;;;;;34.63;8.23;;;8.20;99.90;;;;;;4879769;29;20100;-74
2024/01/25 00:17:53;;;;;;;35.45;7.82;;;8.20;99.90;;;;;;4878308;29;20048;-74
2024/01/25 00:20:18;;;;;;;26.25;4.68;;;8.20;99.90;;;;;;4877775;29;20083;-74
2024/01/25 00:22:44;;;;;;;33.22;8.45;;;8.20;99.90;;;;;;4888655;29;20703;-74
2024/01/25 00:25:10;;;;;;;22.52;4.30;;;8.20;99.90;;;;;;4879648;29;20044;-74
2024/01/25 00:27:35;;;;;;;28.02;7.55;;;8.20;99.90;;;;;;4867116;29;20037;-74
2024/01/25 00:30:01;;;;;;;39.53;8.52;;;8.20;99.90;;;;;;4855453;29;20433;-74
2024/01/25 00:32:27;;;;;;;32.42;8.25;;;8.10;99.90;;;;;;4865611;29;20162;-74
2024/01/25 00:34:53;;;;;;;29.80;7.63;;;8.00;99.90;;;;;;4878682;29;20040;-74
2024/01/25 00:37:19;;;;;;;23.38;3.65;;;8.10;99.90;;;;;;4906228;29;20085;-74
2024/01/25 00:39:44;;;;;;;28.45;6.57;;;8.00;99.90;;;;;;4888060;29;20048;-74
2024/01/25 00:42:13;;;;;;;31.73;7.85;;;8.00;99.90;;;;;;4848145;29;20077;-74
2024/01/25 00:44:38;;;;;;;34.08;7.97;;;8.00;99.90;;;;;;4877906;29;20421;-74
2024/01/25 00:47:04;;;;;;;30.95;7.10;;;8.00;99.90;;;;;;4867709;29;20044;-74
2024/01/25 00:49:30;;;;;;;32.60;7.32;;;8.00;99.90;;;;;;4881668;29;20036;-74
2024/01/25 00:52:02;;;;;;;25.83;4.38;;;8.00;99.90;;;;;;4873302;29;20154;-74
2024/01/25 00:54:28;;;;;;;34.50;7.95;;;7.90;99.90;;;;;;4891920;29;20049;-74
2024/01/25 00:56:53;;;;;;;34.42;7.93;;;7.90;99.90;;;;;;4854482;29;20053;-74
2024/01/25 00:59:20;;;;;;;32.85;7.60;;;7.90;99.90;;;;;;4877769;29;20181;-74
2024/01/25 01:01:52;;;;;;;30.63;7.60;;;7.80;99.90;;;;;;4873783;29;20513;-74
2024/01/25 01:04:18;;;;;;;32.55;8.13;;;7.80;99.90;;;;;;4875047;29;20057;-74
2024/01/25 01:06:44;;;;;;;31.50;7.97;;;7.70;99.90;;;;;;4845020;29;20053;-74
2024/01/25 01:09:09;;;;;;;32.00;7.50;;;7.70;99.90;;;;;;4886720;29;20219;-74
2024/01/25 01:11:36;;;;;;;34.75;7.53;;;7.60;99.90;;;;;;4890894;29;20489;-74
2024/01/25 01:14:02;;;;;;;24.67;3.72;;;7.60;99.90;;;;;;4899533;29;20052;-74
2024/01/25 01:16:30;;;;;;;33.22;7.22;;;7.50;99.90;;;;;;4890308;29;20045;-74
2024/01/25 01:18:56;;;;;;;22.15;3.35;;;7.40;99.90;;;;;;4871678;29;20049;-74
2024/01/25 01:21:21;;;;;;;32.08;7.15;;;7.40;99.90;;;;;;4889955;29;20059;-74
2024/01/25 01:23:47;;;;;;;26.80;4.13;;;7.40;99.90;;;;;;4874718;29;20064;-74
2024/01/25 01:26:12;;;;;;;23.08;3.47;;;7.30;99.90;;;;;;4859452;29;20072;-74
2024/01/25 01:28:38;;;;;;;38.67;8.02;;;7.20;99.90;;;;;;4872606;29;20377;-74
2024/01/25 01:31:04;;;;;;;36.72;8.13;;;7.20;99.90;;;;;;4872321;29;20613;-74
2024/01/25 01:33:30;;;;;;;17.52;3.65;;;7.20;99.90;;;;;;4864396;29;20267;-74
2024/01/25 01:35:55;;;;;;;21.95;4.10;;;7.20;99.90;;;;;;4867404;29;20045;-73
2024/01/25 01:38:21;;;;;;;34.53;8.15;;;7.00;99.90;;;;;;4876606;29;20037;-74
2024/01/25 01:40:47;;;;;;;35.35;8.43;;;7.10;99.90;;;;;;4890669;29;20060;-73
2024/01/25 01:43:19;;;;;;;25.63;3.58;;;7.10;99.90;;;;;;4880646;29;20051;-73
2024/01/25 01:45:45;;;;;;;22.77;3.65;;;7.10;99.90;;;;;;4863847;29;20072;-73
2024/01/25 01:48:11;;;;;;;20.77;3.85;;;7.00;99.90;;;;;;4860168;29;20493;-73
2024/01/25 01:50:38;;;;;;;24.88;3.38;;;7.00;99.90;;;;;;4871632;29;20055;-73
2024/01/25 01:53:04;;;;;;;37.55;8.80;;;7.00;99.90;;;;;;4865284;29;20069;-73
2024/01/25 01:55:31;;;;;;;25.17;3.33;;;7.00;99.90;;;;;;4885118;29;20553;-73
2024/01/25 01:57:58;;;;;;;35.50;7.95;;;7.00;99.90;;;;;;4874885;29;20135;-73
2024/01/25 02:00:24;;;;;;;21.25;4.63;;;7.00;99.90;;;;;;4862033;29;20045;-74
2024/01/25 02:02:50;;;;;;;35.33;8.43;;;6.90;99.90;;;;;;4861253;29;20068;-73
2024/01/25 02:05:16;;;;;;;26.98;4.32;;;7.00;99.90;;;;;;4860173;29;20045;-74
2024/01/25 02:07:42;;;;;;;38.75;8.25;;;7.00;99.90;;;;;;4882935;29;20187;-74
2024/01/25 02:10:09;;;;;;;24.15;3.58;;;6.90;99.90;;;;;;4890085;29;20056;-73
2024/01/25 02:12:35;;;;;;;27.83;4.35;;;6.80;99.90;;;;;;4891289;29;20037;-73
2024/01/25 02:15:01;;;;;;;38.33;8.80;;;6.70;99.90;;;;;;4870738;29;20045;-73
2024/01/25 02:17:26;;;;;;;26.40;3.88;;;6.70;99.90;;;;;;4882834;29;20797;-73
2024/01/25 02:19:52;;;;;;;31.15;3.72;;;6.70;99.90;;;;;;4879448;29;20493;-73
2024/01/25 02:22:19;;;;;;;29.13;4.13;;;6.60;99.90;;;;;;4860127;29;20091;-73
2024/01/25 02:24:45;;;;;;;25.95;5.38;;;6.60;99.90;;;;;;4887662;29;20477;-74
2024/01/25 02:27:10;;;;;;;22.95;3.88;;;6.60;99.90;;;;;;4880100;29;20044;-73
2024/01/25 02:29:36;;;;;;;23.33;3.70;;;6.50;99.90;;;;;;4884445;29;20048;-73
2024/01/25 02:32:03;;;;;;;25.75;3.85;;;6.40;99.90;;;;;;4894333;29;20552;-73
2024/01/25 02:34:28;;;;;;;26.35;3.17;;;6.40;99.90;;;;;;4878674;29;20044;-73
2024/01/25 02:36:54;;;;;;;36.78;8.82;;;6.40;99.90;;;;;;4873360;29;20040;-74
2024/01/25 02:39:19;;;;;;;25.75;3.45;;;6.40;99.90;;;;;;4891459;29;20077;-74
2024/01/25 02:41:45;;;;;;;38.40;8.02;;;6.30;99.90;;;;;;4897345;29;20108;-74
2024/01/25 02:44:11;;;;;;;29.42;5.10;;;6.30;99.90;;;;;;4897025;29;20080;-74
2024/01/25 02:46:38;;;;;;;43.75;9.60;;;6.30;99.90;;;;;;4855645;29;20457;-74
2024/01/25 02:49:04;;;;;;;27.55;3.83;;;6.20;99.90;;;;;;4876041;29;20055;-75
2024/01/25 02:51:29;;;;;;;24.48;3.95;;;6.20;99.90;;;;;;4866070;29;20044;-75
2024/01/25 02:53:55;;;;;;;27.48;3.65;;;6.10;99.90;;;;;;4882029;29;23770;-75
2024/01/25 02:56:21;;;;;;;23.50;3.17;;;6.10;99.90;;;;;;4861761;29;20045;-74
2024/01/25 02:58:47;;;;;;;26.88;4.45;;;6.10;99.90;;;;;;4848615;29;20537;-75
2024/01/25 03:01:12;;;;;;;30.60;5.40;;;6.10;99.90;;;;;;4857274;29;20084;-75
2024/01/25 03:03:38;;;;;;;41.45;9.40;;;6.00;99.90;;;;;;4889791;29;20123;-75
2024/01/25 03:06:06;;;;;;;24.15;3.65;;;6.00;99.90;;;;;;4885243;29;20056;-75
2024/01/25 03:08:31;;;;;;;25.48;3.70;;;6.00;99.90;;;;;;4849005;29;20041;-75
2024/01/25 03:10:57;;;;;;;17.88;3.50;;;6.00;99.90;;;;;;4869454;29;20049;-75
2024/01/25 03:13:23;;;;;;;22.67;4.38;;;6.00;99.90;;;;;;4876216;29;20123;-74
2024/01/25 03:15:48;;;;;;;46.20;9.25;;;5.90;99.90;;;;;;4879913;29;20062;-75
2024/01/25 03:18:14;;;;;;;37.70;8.55;;;6.00;99.90;;;;;;4873386;29;20033;-75
2024/01/25 03:20:40;;;;;;;18.08;3.72;;;6.00;99.90;;;;;;4858767;29;20059;-74
2024/01/25 03:23:05;;;;;;;27.88;4.53;;;5.90;99.90;;;;;;4879653;29;20096;-74
2024/01/25 03:25:31;;;;;;;31.50;3.30;;;5.90;99.90;;;;;;4877557;29;20072;-74
2024/01/25 03:27:57;;;;;;;27.20;3.63;;;5.90;99.90;;;;;;4860272;29;20143;-75
2024/01/25 03:30:22;;;;;;;41.47;8.48;;;5.80;99.90;;;;;;4883545;29;20044;-74
2024/01/25 03:32:48;;;;;;;40.55;8.60;;;5.80;99.90;;;;;;4865386;29;20048;-74
2024/01/25 03:35:14;;;;;;;26.92;4.88;;;5.90;99.90;;;;;;4879039;29;20044;-75
2024/01/25 03:37:39;;;;;;;27.23;4.30;;;5.80;99.90;;;;;;4862913;29;20045;-75
2024/01/25 03:40:06;;;;;;;28.60;3.88;;;5.80;99.90;;;;;;4874268;29;20053;-74
2024/01/25 03:42:31;;;;;;;33.88;3.67;;;5.80;99.90;;;;;;4868151;29;20154;-74
2024/01/25 03:44:57;;;;;;;33.53;4.60;;;5.70;99.90;;;;;;4881075;29;20056;-74
2024/01/25 03:47:23;;;;;;;25.38;4.70;;;5.70;99.90;;;;;;4880257;29;20049;-74
2024/01/25 03:49:49;;;;;;;30.60;4.25;;;5.70;99.90;;;;;;4882601;29;20047;-74
2024/01/25 03:52:14;;;;;;;27.13;4.60;;;5.70;99.90;;;;;;4878992;29;20129;-74
2024/01/25 03:54:40;;;;;;;29.05;6.03;;;5.70;99.90;;;;;;4873171;29;20045;-75
2024/01/25 03:57:05;;;;;;;27.73;4.15;;;5.60;99.90;;;;;;4879111;29;20055;-74
2024/01/25 03:59:31;;;;;;;23.35;3.65;;;5.60;99.90;;;;;;4875627;29;20041;-75
2024/01/25 04:01:57;;;;;;;26.27;4.10;;;5.50;99.90;;;;;;4882097;29;21040;-74
2024/01/25 04:04:23;;;;;;;29.77;4.60;;;5.50;99.90;;;;;;4858562;29;20138;-74
2024/01/25 04:06:48;;;;;;;22.92;4.18;;;5.40;99.90;;;;;;4869278;29;20136;-75
2024/01/25 04:09:18;;;;;;;41.97;7.57;;;5.40;99.90;;;;;;4889152;29;20045;-75
2024/01/25 04:11:43;;;;;;;31.83;4.57;;;5.40;99.90;;;;;;4873200;29;20049;-74
2024/01/25 04:14:09;;;;;;;30.58;5.03;;;5.40;99.90;;;;;;4871130;29;20053;-75
2024/01/25 04:16:34;;;;;;;23.30;3.50;;;5.40;99.90;;;;;;4878448;29;20052;-74
2024/01/25 04:19:00;;;;;;;21.52;3.92;;;5.30;99.90;;;;;;4882619;29;20788;-74
2024/01/25 04:21:27;;;;;;;49.78;9.90;;;5.30;99.90;;;;;;4874753;29;20045;-74
2024/01/25 04:23:52;;;;;;;40.80;9.05;;;5.30;99.90;;;;;;4903282;29;20600;-75
2024/01/25 04:26:18;;;;;;;20.35;3.63;;;5.30;99.90;;;;;;4876395;29;20048;-74
2024/01/25 04:28:44;;;;;;;23.23;3.53;;;5.30;99.90;;;;;;4873795;29;20049;-74
2024/01/25 04:31:10;;;;;;;25.33;3.80;;;5.30;99.90;;;;;;4863336;29;20050;-74
2024/01/25 04:33:35;;;;;;;25.45;4.97;;;5.20;99.90;;;;;;4871463;29;20088;-75
2024/01/25 04:36:01;;;;;;;25.92;4.00;;;5.20;99.90;;;;;;4873246;29;20409;-74
2024/01/25 04:38:27;;;;;;;34.75;5.57;;;5.10;99.90;;;;;;4869270;29;20040;-74
2024/01/25 04:40:52;;;;;;;25.55;4.05;;;5.10;99.90;;;;;;4875840;29;20116;-74
2024/01/25 04:43:18;;;;;;;24.45;3.67;;;5.10;99.90;;;;;;4870045;29;20057;-75
2024/01/25 04:45:43;;;;;;;43.17;8.95;;;5.00;99.90;;;;;;4865374;29;20157;-74
2024/01/25 04:48:09;;;;;;;29.85;3.50;;;5.10;99.90;;;;;;4895444;29;20052;-73
2024/01/25 04:50:35;;;;;;;26.60;3.63;;;5.00;99.90;;;;;;4865556;29;20129;-74
2024/01/25 04:53:03;;;;;;;26.40;4.30;;;4.90;99.90;;;;;;4873116;29;20128;-74
2024/01/25 04:55:29;;;;;;;24.58;4.40;;;4.90;99.90;;;;;;4879148;29;20056;-74
2024/01/25 04:57:55;;;;;;;26.58;4.47;;;4.90;99.90;;;;;;4874705;29;20051;-73
2024/01/25 05:00:22;;;;;;;35.83;4.93;;;4.90;99.90;;;;;;4882487;29;20052;-74
2024/01/25 05:02:48;;;;;;;25.77;3.37;;;4.80;99.90;;;;;;4876832;29;20065;-74
2024/01/25 05:05:14;;;;;;;24.90;3.53;;;4.80;99.90;;;;;;4885941;29;20304;-74
2024/01/25 05:07:40;;;;;;;22.92;3.78;;;4.80;99.90;;;;;;4886164;29;20697;-74
2024/01/25 05:10:07;;;;;;;48.40;9.07;;;4.80;99.90;;;;;;4900279;29;20045;-74
2024/01/25 05:12:33;;;;;;;31.40;3.97;;;4.80;99.90;;;;;;4853192;29;20049;-74
2024/01/25 05:14:59;;;;;;;27.00;4.15;;;4.80;99.90;;;;;;4879451;29;20048;-74
2024/01/25 05:17:24;;;;;;;27.05;4.35;;;4.80;99.90;;;;;;4859102;29;20160;-74
2024/01/25 05:19:50;;;;;;;32.72;4.15;;;4.80;99.90;;;;;;4889463;29;20075;-74
2024/01/25 05:22:16;;;;;;;23.55;4.38;;;4.70;99.90;;;;;;4861310;29;20056;-75
2024/01/25 05:24:42;;;;;;;26.50;4.55;;;4.80;99.90;;;;;;4860440;29;20037;-74
2024/01/25 05:27:07;;;;;;;34.88;4.75;;;4.70;99.90;;;;;;4871611;29;20048;-74
2024/01/25 05:29:33;;;;;;;33.67;5.28;;;4.70;99.90;;;;;;4885343;29;20048;-74
2024/01/25 05:31:59;;;;;;;25.35;3.70;;;4.70;99.90;;;;;;4880186;29;21847;-74
2024/01/25 05:34:25;;;;;;;26.67;4.15;;;4.70;99.90;;;;;;4879440;29;20131;-74
2024/01/25 05:36:50;;;;;;;29.85;3.88;;;4.70;99.90;;;;;;4887609;29;20108;-74
2024/01/25 05:39:17;;;;;;;24.83;3.63;;;4.70;99.90;;;;;;4876424;29;20052;-74
2024/01/25 05:41:44;;;;;;;45.25;9.75;;;4.60;99.90;;;;;;4877269;29;20067;-74
2024/01/25 05:44:12;;;;;;;22.98;3.60;;;4.70;99.90;;;;;;4869142;29;20120;-74
2024/01/25 05:46:37;;;;;;;23.80;3.70;;;4.70;99.90;;;;;;4872935;29;20048;-74
2024/01/25 05:49:03;;;;;;;23.33;3.97;;;4.60;99.90;;;;;;4875644;29;20370;-74
2024/01/25 05:51:28;;;;;;;30.60;4.97;;;4.70;99.90;;;;;;4881194;29;20132;-74
2024/01/25 05:53:57;;;;;;;22.13;3.60;;;4.60;99.90;;;;;;4866478;29;20049;-74
2024/01/25 05:56:22;;;;;;;29.25;4.50;;;4.60;99.90;;;;;;4882273;29;20104;-74
2024/01/25 05:58:48;;;;;;;27.60;5.30;;;4.50;99.90;;;;;;4884978;29;20049;-74
2024/01/25 06:01:14;;;;;;;28.38;3.05;;;4.50;99.90;;;;;;4875121;29;20067;-74
2024/01/25 06:03:40;;;;;;;25.05;4.13;;;4.40;99.90;;;;;;4872615;29;20049;-74
2024/01/25 06:06:07;;;;;;;52.90;9.98;;;4.40;99.90;;;;;;4854665;29;20549;-74
2024/01/25 06:08:34;;;;;;;;;;;4.40;99.90;;;;;;4883277;29;20073;-74
2024/01/25 06:10:59;;;;;;;22.45;3.63;;;4.40;99.90;;;;;;4875210;29;19943;-74
2024/01/25 06:13:25;;;;;;;28.88;4.32;;;4.40;99.90;;;;;;4882508;29;20041;-74
2024/01/25 06:15:51;;;;;;;27.80;4.05;;;4.40;99.90;;;;;;4889398;29;20064;-74
2024/01/25 06:18:16;;;;;;;28.80;4.63;;;4.30;99.90;;;;;;4867839;29;20044;-74
2024/01/25 06:20:43;;;;;;;31.38;4.78;;;4.20;99.90;;;;;;4881399;29;20520;-74
2024/01/25 06:23:09;;;;;;;27.52;5.57;;;4.30;99.90;;;;;;4870813;29;20133;-74
2024/01/25 06:25:35;;;;;;;26.55;4.50;;;4.30;99.90;;;;;;4886340;29;20501;-74
2024/01/25 06:28:03;;;;;;;37.58;4.10;;;4.20;99.90;;;;;;4870362;29;20056;-74
2024/01/25 06:30:29;;;;;;;28.00;3.80;;;4.20;99.90;;;;;;4860017;29;20078;-74
2024/01/25 06:32:55;;;;;;;36.97;4.80;;;4.20;99.90;;;;;;4877284;29;20075;-74
2024/01/25 06:35:20;;;;;;;31.90;4.95;;;4.30;99.90;;;;;;4878346;29;20049;-74
2024/01/25 06:37:46;;;;;;;42.63;6.70;;;4.20;99.90;;;;;;4884218;29;20520;-74
2024/01/25 06:40:11;;;;;;;32.97;4.95;;;4.20;99.90;;;;;;4874083;29;20136;-73
2024/01/25 06:42:37;;;;;;;37.35;4.68;;;4.20;99.90;;;;;;4881188;29;20181;-74
2024/01/25 06:45:03;;;;;;;22.42;3.97;;;4.20;99.90;;;;;;4843982;29;20072;-74
2024/01/25 06:47:29;;;;;;;22.05;4.28;;;4.20;99.90;;;;;;4866212;29;20072;-74
2024/01/25 06:49:54;;;;;;;29.10;4.55;;;4.10;99.90;;;;;;4874996;29;20068;-76
2024/01/25 06:52:20;;;;;;;32.55;3.70;;;4.20;99.90;;;;;;4879267;29;20091;-74
2024/01/25 06:54:46;;;;;;;23.42;3.30;;;4.10;99.90;;;;;;4847644;29;20064;-73
2024/01/25 06:57:14;;;;;;;32.47;4.43;;;4.10;99.90;;;;;;4887276;29;20040;-72
2024/01/25 06:59:39;;;;;;;25.08;3.95;;;4.10;99.90;;;;;;4875106;29;20105;-73
2024/01/25 07:02:06;;;;;;;30.73;4.65;;;4.10;99.90;;;;;;4876845;29;20045;-73
2024/01/25 07:04:32;;;;;;;29.35;4.28;;;4.00;99.90;;;;;;4868964;29;20053;-73
2024/01/25 07:06:59;;;;;;;29.42;4.82;;;4.00;99.90;;;;;;4865034;29;20045;-73
2024/01/25 07:09:25;;;;;;;26.45;5.13;;;4.00;99.90;;;;;;4854696;29;20049;-73
2024/01/25 07:11:51;;;;;;;27.35;4.53;;;4.00;99.90;;;;;;4888986;29;20037;-72
2024/01/25 07:14:17;;;;;;;31.45;3.75;;;3.90;99.90;;;;;;4893605;29;20375;-72
2024/01/25 07:16:42;;;;;;;32.00;5.18;;;3.90;99.90;;;;;;4875590;29;20041;-72
2024/01/25 07:19:08;;;;;;;51.28;10.38;;;3.90;99.90;;;;;;4879388;29;20044;-72
2024/01/25 07:21:34;;;;;;;22.02;3.88;;;3.90;99.90;;;;;;4879375;29;20071;-71
2024/01/25 07:24:02;;;;;;;26.20;4.18;;;4.00;99.90;;;;;;4856552;29;20037;-72
2024/01/25 07:26:27;;;;;;;28.73;3.97;;;3.90;99.90;;;;;;4851905;29;20072;-72
2024/01/25 07:28:57;;;;;;;25.85;4.35;;;3.90;99.90;;;;;;4868716;29;20052;-72
2024/01/25 07:31:27;;;;;;;16.10;3.95;;;3.90;99.90;;;;;;4857559;29;20052;-72
2024/01/25 07:33:53;;;;;;;29.63;4.50;;;3.90;99.90;;;;;;4859367;29;20072;-72
2024/01/25 07:36:20;;;;;;;33.38;5.20;;;3.90;99.90;;;;;;4879617;29;20037;-72
2024/01/25 07:38:49;;;;;;;20.67;3.95;;;3.90;99.90;;;;;;4867143;29;20509;-72
2024/01/25 07:41:15;;;;;;;36.13;4.78;;;3.90;99.90;;;;;;4861592;29;20063;-73
2024/01/25 07:43:41;;;;;;;33.22;4.00;;;3.90;99.90;;;;;;4883422;29;20419;-72
2024/01/25 07:46:07;;;;;;;34.97;4.97;;;3.90;99.90;;;;;;4885304;29;20533;-72
2024/01/25 07:48:33;;;;;;;24.38;4.15;;;4.00;99.90;;;;;;4878039;29;20045;-72
2024/01/25 07:50:59;;;;;;;24.67;4.22;;;3.90;99.90;;;;;;4886232;29;20771;-72
2024/01/25 07:53:24;;;;;;;26.02;4.35;;;4.00;99.90;;;;;;4859956;29;20049;-72
2024/01/25 07:55:50;;;;;;;27.17;4.20;;;4.00;99.90;;;;;;4866940;29;20063;-72
2024/01/25 07:58:16;;;;;;;22.55;4.50;;;4.00;99.90;;;;;;4862791;29;20061;-72
2024/01/25 08:00:42;;;;;;;37.25;4.32;;;4.00;99.90;;;;;;4856322;29;20096;-72
2024/01/25 08:03:08;;;;;;;25.30;4.65;;;4.00;99.90;;;;;;4874354;29;20048;-72
2024/01/25 08:05:34;;;;;;;33.03;5.03;;;4.10;99.90;;;;;;4877980;29;20121;-72
2024/01/25 08:08:00;;;;;;;25.75;4.75;;;4.10;99.90;;;;;;4878284;29;20943;-72
2024/01/25 08:10:26;;;;;;;28.77;4.38;;;4.10;99.90;;;;;;4852227;29;20049;-71
2024/01/25 08:12:52;;;;;;;24.25;4.43;;;4.10;99.90;;;;;;4860368;29;20083;-72
2024/01/25 08:15:18;;;;;;;29.80;4.18;;;4.20;99.90;;;;;;4875703;29;20055;-72
2024/01/25 08:17:43;;;;;;;25.17;5.13;;;4.20;99.90;;;;;;4858897;29;20050;-72
2024/01/25 08:20:10;;;;;;;33.15;5.63;;;4.20;99.90;;;;;;4858687;29;20549;-75
2024/01/25 08:22:36;;;;;;;28.58;4.65;;;4.20;99.90;;;;;;4872723;29;20045;-77
2024/01/25 08:25:04;;;;;;;31.00;4.57;;;4.30;99.90;;;;;;4859523;29;20406;-77
2024/01/25 08:27:29;;;;;;;29.80;4.35;;;4.30;99.90;;;;;;4852213;29;20048;-79
2024/01/25 08:29:55;;;;;;;23.95;3.80;;;4.40;99.90;;;;;;4862415;29;20076;-79
2024/01/25 08:32:21;;;;;;;32.40;5.22;;;4.40;99.90;;;;;;4877388;29;20096;-78
2024/01/25 08:34:46;;;;;;;21.30;4.82;;;4.40;99.90;;;;;;4853311;29;20132;-78
2024/01/25 08:37:12;;;;;;;49.92;5.93;;;4.50;99.90;;;;;;4849881;29;20446;-79
2024/01/25 08:39:37;;;;;;;32.25;5.22;;;4.50;99.90;;;;;;4872327;29;20041;-76
2024/01/25 08:42:06;;;;;;;26.42;3.97;;;4.50;99.90;;;;;;4866094;29;20083;-76
2024/01/25 08:44:32;;;;;;;35.13;6.15;;;4.60;99.90;;;;;;4858984;29;20044;-78
2024/01/25 08:46:57;;;;;;;30.15;4.55;;;4.70;99.90;;;;;;4852426;29;20057;-81
2024/01/25 08:49:23;;;;;;;34.40;5.32;;;4.70;99.90;;;;;;4858659;29;20064;-82
2024/01/25 08:51:48;;;;;;;36.05;4.80;;;4.70;99.90;;;;;;4872179;29;20041;-82
2024/01/25 08:54:14;;;;;;;31.80;4.72;;;4.70;99.90;;;;;;4867120;29;20052;-82
2024/01/25 08:56:40;;;;;;;30.25;5.38;;;4.70;99.90;;;;;;4876271;29;20041;-81
2024/01/25 08:59:05;;;;;;;31.63;4.97;;;4.70;99.90;;;;;;4870609;29;20045;-80
2024/01/25 09:01:31;;;;;;;52.03;11.18;;;4.70;99.90;;;;;;4873989;29;20073;-80
2024/01/25 09:04:02;;;;;;;37.25;6.43;;;4.80;99.90;;;;;;4863385;29;20049;-77
2024/01/25 09:06:29;;;;;;;29.45;4.68;;;4.80;99.90;;;;;;4846607;29;20121;-77
2024/01/25 09:08:55;;;;;;;31.23;5.40;;;4.90;99.90;;;;;;4857267;29;20127;-77
2024/01/25 09:11:20;;;;;;;48.85;11.10;;;4.90;99.90;;;;;;4858938;29;20128;-77
2024/01/25 09:13:47;;;;;;;28.85;5.65;;;5.00;99.90;;;;;;4855025;29;20394;-77
2024/01/25 09:16:13;;;;;;;49.28;11.63;;;5.00;99.90;;;;;;4855699;29;20053;-77
2024/01/25 09:18:39;;;;;;;26.55;4.85;;;5.10;99.90;;;;;;4864324;29;20057;-75
2024/01/25 09:21:04;;;;;;;21.77;4.88;;;5.20;99.90;;;;;;4869572;29;20041;-75
2024/01/25 09:23:30;;;;;;;38.55;5.10;;;5.20;99.90;;;;;;4871913;29;20056;-75
2024/01/25 09:25:56;;;;;;;30.55;5.75;;;5.20;99.90;;;;;;4850657;29;20079;-76
2024/01/25 09:28:21;;;;;;;55.53;11.00;;;5.20;99.90;;;;;;4873490;29;20080;-77
2024/01/25 09:30:47;;;;;;;42.03;6.30;;;5.20;99.90;;;;;;4861929;29;20045;-77
2024/01/25 09:33:14;;;;;;;28.60;4.80;;;5.20;99.90;;;;;;4858634;29;20056;-77
2024/01/25 09:35:39;;;;;;;30.70;4.45;;;5.20;99.90;;;;;;4853895;29;20044;-78
2024/01/25 09:38:05;;;;;;;34.38;5.50;;;5.30;99.90;;;;;;4851973;29;20160;-81
2024/01/25 09:40:32;;;;;;;24.98;4.82;;;5.30;99.90;;;;;;4844225;29;20061;-79
2024/01/25 09:42:57;;;;;;;31.77;5.05;;;5.40;99.90;;;;;;4854237;29;20461;-81
2024/01/25 09:45:24;;;;;;;28.00;6.43;;;5.40;99.90;;;;;;4846988;29;20068;-78
2024/01/25 09:47:50;;;;;;;36.33;5.43;;;5.40;99.90;;;;;;4869966;29;20518;-80
2024/01/25 09:50:16;;;;;;;28.98;5.47;;;5.50;99.90;;;;;;4874317;29;20128;-82
2024/01/25 09:52:47;;;;;;;25.45;5.10;;;5.50;99.90;;;;;;4848863;29;20053;-82
2024/01/25 09:55:14;;;;;;;27.83;4.40;;;5.60;99.90;;;;;;4852962;29;20086;-78
2024/01/25 09:57:44;;;;;;;45.05;5.85;;;5.60;99.90;;;;;;4867608;29;20041;-77
2024/01/25 10:00:11;;;;;;;34.55;5.47;;;5.60;99.90;;;;;;4864189;29;20104;-78
2024/01/25 10:02:38;;;;;;;31.30;6.03;;;5.70;99.90;;;;;;4851414;29;20045;-78
2024/01/25 10:05:04;;;;;;;52.63;11.17;;;5.70;99.90;;;;;;4874135;29;20045;-78
2024/01/25 10:07:43;;;;;;;36.50;7.07;;;5.80;99.90;;;;;;4872459;29;20053;-78
2024/01/25 10:10:10;;;;;;;29.75;5.93;;;5.90;99.90;;;;;;4870010;29;20056;-75
2024/01/25 10:12:38;;;;;;;25.48;5.47;;;5.90;99.90;;;;;;4867412;29;20067;-76
2024/01/25 10:15:04;;;;;;;;;;;5.90;99.90;;;;;;4862663;29;20131;-76
2024/01/25 10:17:30;;;;;;;31.73;5.87;;;5.90;99.90;;;;;;4860183;29;19920;-75
2024/01/25 10:19:56;;;;;;;25.70;5.97;;;6.00;99.90;;;;;;4858686;29;20057;-75
2024/01/25 10:22:22;;;;;;;38.35;6.20;;;6.00;99.90;;;;;;4844283;29;20057;-76
2024/01/25 10:24:50;;;;;;;50.58;11.75;;;6.00;99.90;;;;;;4868005;29;20498;-75
2024/01/25 10:27:16;;;;;;;;;;;6.10;99.90;;;;;;4868387;29;20048;-76
2024/01/25 10:29:41;;;;;;;34.55;5.90;;;6.10;99.90;;;;;;4865633;29;20519;-75
2024/01/25 10:32:09;;;;;;;34.08;6.03;;;6.10;99.90;;;;;;4872812;29;20585;-74
2024/01/25 10:34:38;;;;;;;32.28;6.22;;;6.10;99.90;;;;;;4863734;29;20391;-74
2024/01/25 10:37:07;;;;;;;30.23;4.53;;;6.10;99.90;;;;;;4857883;29;20166;-74
2024/01/25 10:39:34;;;;;;;25.50;5.28;;;6.20;99.90;;;;;;4868295;29;20112;-71
2024/01/25 10:42:00;;;;;;;23.50;4.82;;;6.20;99.90;;;;;;4869643;29;20113;-73
2024/01/25 10:44:26;;;;;;;29.55;5.47;;;6.20;99.90;;;;;;4857643;29;20538;-73
2024/01/25 10:46:54;;;;;;;31.95;7.45;;;6.30;99.90;;;;;;4861688;29;20443;-77
2024/01/25 10:49:20;;;;;;;31.55;5.28;;;6.30;99.90;;;;;;4863012;29;20048;-76
2024/01/25 10:51:46;;;;;;;38.75;7.05;;;6.40;99.90;;;;;;4846940;29;20053;-74
2024/01/25 10:54:15;;;;;;;34.55;5.93;;;6.40;99.90;;;;;;4874338;29;20100;-78
2024/01/25 10:56:42;;;;;;;34.60;5.72;;;6.40;99.90;;;;;;4876867;29;20045;-73
2024/01/25 10:59:08;;;;;;;48.65;12.15;;;6.40;99.90;;;;;;4875155;29;20136;-74
2024/01/25 11:01:35;;;;;;;28.38;5.43;;;6.50;99.90;;;;;;4873190;29;20037;-74
2024/01/25 11:04:00;;;;;;;34.45;5.75;;;6.50;99.90;;;;;;4841252;29;20490;-75
2024/01/25 11:06:28;;;;;;;51.38;12.00;;;6.60;99.90;;;;;;4859826;29;20045;-74
2024/01/25 11:09:07;;;;;;;50.53;11.90;;;6.60;99.90;;;;;;4870472;29;20692;-74
2024/01/25 11:11:32;;;;;;;28.83;5.82;;;6.70;99.90;;;;;;4862726;29;20050;-74
2024/01/25 11:13:59;;;;;;;29.25;5.60;;;6.70;99.90;;;;;;4840927;29;20109;-74
2024/01/25 11:16:30;;;;;;;35.10;6.35;;;6.80;99.90;;;;;;4840692;29;20056;-74
2024/01/25 11:19:05;;;;;;;33.35;5.15;;;6.80;99.90;;;;;;4859568;29;20042;-74
2024/01/25 11:21:39;;;;;;;30.92;5.32;;;6.90;99.90;;;;;;4858283;29;20516;-74
2024/01/25 11:24:05;;;;;;;27.42;5.70;;;7.00;99.90;;;;;;4869452;29;20497;-74
2024/01/25 11:26:34;;;;;;;49.55;11.82;;;7.00;99.90;;;;;;4867801;29;20053;-79
2024/01/25 11:29:00;;;;;;;29.13;6.03;;;7.20;99.90;;;;;;4888805;29;20041;-80
2024/01/25 11:31:27;;;;;;;42.75;11.88;;;7.30;99.90;;;;;;4859350;29;20076;-84
2024/01/25 11:33:59;;;;;;;50.35;11.45;;;7.40;99.90;;;;;;4874257;29;20050;-81
2024/01/25 11:36:26;;;;;;;42.10;11.40;;;7.50;99.90;;;;;;4869054;29;20494;-83
2024/01/25 11:38:51;;;;;;;42.38;11.52;;;7.50;99.90;;;;;;4861775;29;20048;-81
2024/01/25 11:41:18;;;;;;;42.05;5.38;;;7.70;99.90;;;;;;4836690;29;20062;-83
2024/01/25 11:43:43;;;;;;;26.63;6.35;;;7.60;99.90;;;;;;4880683;29;20364;-80
2024/01/25 11:46:10;;;;;;;42.75;11.40;;;7.70;99.90;;;;;;4847163;29;20066;-79
2024/01/25 11:48:40;;;;;;;30.02;6.75;;;7.70;99.90;;;;;;4867600;29;20061;-86
2024/01/25 11:51:06;;;;;;;42.60;11.20;;;7.80;99.90;;;;;;4843875;29;20065;-77
2024/01/25 11:53:31;;;;;;;43.33;10.68;;;7.90;99.90;;;;;;4848462;29;20133;-76
2024/01/25 11:55:57;;;;;;;41.92;10.50;;;8.00;99.90;;;;;;4847415;29;20049;-76
2024/01/25 11:58:23;;;;;;;29.50;5.25;;;8.00;99.90;;;;;;4870814;29;20048;-76
2024/01/25 12:00:50;;;;;;;42.45;10.55;;;8.00;99.90;;;;;;4861911;29;20053;-76
2024/01/25 12:03:16;;;;;;;31.02;6.90;;;8.00;99.90;;;;;;4852765;29;20514;-77
2024/01/25 12:05:42;;;;;;;45.22;11.32;;;8.00;99.90;;;;;;4847623;29;20121;-76
2024/01/25 12:08:12;;;;;;;40.85;11.23;;;8.10;99.90;;;;;;4840130;29;20050;-73
2024/01/25 12:10:38;;;;;;;38.05;10.20;;;8.10;99.90;;;;;;4843431;29;20064;-77
2024/01/25 12:13:03;;;;;;;35.42;10.02;;;8.20;99.90;;;;;;4835948;29;20378;-76
2024/01/25 12:15:32;;;;;;;42.28;10.75;;;8.20;99.90;;;;;;4844790;29;20052;-76
2024/01/25 12:17:58;;;;;;;41.85;10.48;;;8.30;99.90;;;;;;4832725;29;20101;-76
2024/01/25 12:20:24;;;;;;;28.77;5.28;;;8.30;99.90;;;;;;4839919;29;20546;-76
2024/01/25 12:22:50;;;;;;;43.08;10.23;;;8.30;99.90;;;;;;4837097;29;20053;-76
2024/01/25 12:25:16;;;;;;;37.08;10.13;;;8.30;99.90;;;;;;4853496;29;20043;-76
2024/01/25 12:27:41;;;;;;;38.22;10.15;;;8.40;99.90;;;;;;4838567;29;20371;-76
2024/01/25 12:30:08;;;;;;;40.22;10.63;;;8.40;99.90;;;;;;4838993;29;20505;-76
2024/01/25 12:32:34;;;;;;;39.85;10.57;;;8.40;99.90;;;;;;4836496;29;20050;-76
2024/01/25 12:35:01;;;;;;;38.72;9.80;;;8.40;99.90;;;;;;4836597;29;20169;-76
2024/01/25 12:37:27;;;;;;;29.90;5.85;;;8.40;99.90;;;;;;4842541;29;20049;-76
2024/01/25 12:39:54;;;;;;;39.05;9.93;;;8.50;99.90;;;;;;4878298;29;20042;-76